< < Back
Terminal Aerodrome Forecast


Current Version              Previous Versions:   1  2  3  4  5  6  7  8  9  

Terminal Aerodrome Forecast

347
FTUS44 KMOB 280500 RRA
TAFMOB
TAF
KMOB 280553Z 2806/2824 03010KT P6SM SKC
     FM281100 06010KT P6SM BKN015
     FM281500 07008KT P6SM SCT025 SCT250=



Latest METAR

751
SAUS80 KWBC 282300 CCA
MTRMOB
METAR KMOB 282256Z VRB06KT 10SM FEW020 17/09 A3033 RMK AO2 SLP270
T01720089


USA.gov is the U.S. government's official web portal to all federal, state and local government web resources and services.